createdAt,value
2018-04-08T00:00:27.798Z,78.16
2018-04-08T00:02:56.198Z,78.11
2018-04-08T00:05:24.582Z,78.01
2018-04-08T00:07:52.967Z,77.88
2018-04-08T00:10:21.344Z,77.87
2018-04-08T00:12:49.717Z,77.69
2018-04-08T00:15:18.134Z,77.66
2018-04-08T00:17:46.523Z,77.60
2018-04-08T00:20:14.902Z,77.60
2018-04-08T00:22:43.320Z,77.68
2018-04-08T00:25:11.708Z,77.74
2018-04-08T00:27:40.110Z,77.55
2018-04-08T00:30:08.853Z,77.48
2018-04-08T00:32:38.080Z,77.58
2018-04-08T00:35:12.018Z,77.54
2018-04-08T00:37:40.761Z,77.56
2018-04-08T00:40:12.293Z,77.43
2018-04-08T00:42:40.721Z,77.69
2018-04-08T00:45:11.723Z,77.68
2018-04-08T00:47:40.118Z,77.83
2018-04-08T00:50:08.370Z,77.99
2018-04-08T00:52:36.513Z,78.45
2018-04-08T00:55:09.286Z,78.57
2018-04-08T00:57:37.689Z,78.66
2018-04-08T01:00:07.792Z,78.98
2018-04-08T01:02:36.195Z,79.10
2018-04-08T01:05:04.063Z,79.21
2018-04-08T01:07:32.484Z,79.35
2018-04-08T01:10:00.886Z,79.43
2018-04-08T01:12:29.282Z,79.40
2018-04-08T01:14:57.725Z,79.42
2018-04-08T01:17:25.888Z,79.54
2018-04-08T01:19:54.303Z,79.57
2018-04-08T01:22:22.721Z,79.67
2018-04-08T01:24:51.130Z,79.95
2018-04-08T01:27:19.513Z,80.06
2018-04-08T01:29:47.925Z,80.30
2018-04-08T01:32:16.329Z,80.34
2018-04-08T01:34:44.718Z,80.35
2018-04-08T01:37:13.449Z,80.35
2018-04-08T01:39:42.034Z,80.28
2018-04-08T01:42:10.465Z,80.35
2018-04-08T01:44:38.875Z,80.49
2018-04-08T01:47:07.475Z,80.57
2018-04-08T01:49:35.866Z,80.64
2018-04-08T01:52:04.293Z,80.72
2018-04-08T01:54:32.678Z,80.76
2018-04-08T01:57:01.115Z,80.73
2018-04-08T01:59:29.513Z,80.81
2018-04-08T02:01:57.891Z,80.98
2018-04-08T02:04:26.045Z,81.02
2018-04-08T02:06:54.444Z,81.07
2018-04-08T02:09:22.843Z,81.08
2018-04-08T02:11:51.241Z,81.04
2018-04-08T02:14:19.625Z,81.06
2018-04-08T02:16:48.201Z,81.11
2018-04-08T02:19:16.694Z,81.19
2018-04-08T02:21:45.103Z,81.21
2018-04-08T02:24:13.472Z,81.19
2018-04-08T02:26:41.861Z,81.14
2018-04-08T02:29:10.422Z,81.11
2018-04-08T02:31:38.796Z,81.11
2018-04-08T02:34:07.181Z,81.03
2018-04-08T02:36:35.564Z,80.94
2018-04-08T02:39:03.402Z,80.80
2018-04-08T02:41:31.819Z,80.69
2018-04-08T02:44:00.215Z,80.62
2018-04-08T02:46:28.641Z,80.50
2018-04-08T02:48:57.095Z,80.47
2018-04-08T02:51:25.492Z,80.45
2018-04-08T02:53:53.883Z,80.36
2018-04-08T02:56:22.311Z,80.37
2018-04-08T02:58:50.788Z,80.28
2018-04-08T03:01:19.194Z,80.09
2018-04-08T03:03:48.397Z,80.08
2018-04-08T03:06:16.757Z,79.89
2018-04-08T03:08:45.153Z,79.68
2018-04-08T03:11:14.030Z,79.49
2018-04-08T03:13:42.437Z,79.56
2018-04-08T03:16:11.344Z,79.57
2018-04-08T03:18:39.792Z,79.69
2018-04-08T03:21:08.178Z,79.78
2018-04-08T03:23:36.565Z,79.87
2018-04-08T03:26:04.962Z,79.97
2018-04-08T03:28:33.339Z,80.10
2018-04-08T03:31:01.784Z,80.08
2018-04-08T03:33:30.214Z,80.27
2018-04-08T03:35:58.637Z,80.51
2018-04-08T03:38:27.018Z,80.75
2018-04-08T03:40:55.421Z,80.90
2018-04-08T03:43:24.039Z,80.94
2018-04-08T03:45:52.419Z,81.29
2018-04-08T03:48:20.818Z,81.53
2018-04-08T03:50:49.190Z,81.66
2018-04-08T03:53:18.662Z,81.83
2018-04-08T03:55:47.044Z,82.19
2018-04-08T03:58:16.911Z,82.17
2018-04-08T04:00:45.090Z,82.18
2018-04-08T04:03:13.470Z,82.28
2018-04-08T04:05:41.628Z,82.32
2018-04-08T04:08:09.785Z,82.47
2018-04-08T04:10:37.973Z,82.64
2018-04-08T04:13:06.131Z,82.84
2018-04-08T04:15:34.266Z,83.10
2018-04-08T04:18:02.100Z,83.42
2018-04-08T04:20:41.743Z,83.55
2018-04-08T04:23:21.104Z,83.77
2018-04-08T04:26:00.460Z,83.85
2018-04-08T04:28:28.865Z,83.91
2018-04-08T04:30:57.021Z,84.00
2018-04-08T04:33:26.099Z,83.95
2018-04-08T04:35:54.497Z,84.02
2018-04-08T04:38:22.890Z,84.03
2018-04-08T04:40:51.319Z,84.20
2018-04-08T04:43:19.712Z,84.25
2018-04-08T04:45:48.082Z,84.33
2018-04-08T04:48:16.461Z,84.22
2018-04-08T04:50:44.845Z,84.34
2018-04-08T04:53:13.249Z,84.32
2018-04-08T04:55:41.059Z,84.44
2018-04-08T04:58:09.466Z,84.43
2018-04-08T05:00:37.918Z,84.40
2018-04-08T05:03:06.075Z,84.51
2018-04-08T05:05:34.472Z,84.52
2018-04-08T05:08:02.853Z,84.41
2018-04-08T05:10:31.258Z,84.43
2018-04-08T05:12:59.636Z,84.38
2018-04-08T05:15:28.179Z,84.31
2018-04-08T05:17:56.571Z,84.18
2018-04-08T05:20:24.951Z,84.18
2018-04-08T05:22:53.599Z,83.96
2018-04-08T05:25:21.992Z,83.62
2018-04-08T05:27:50.366Z,83.14
2018-04-08T05:30:18.755Z,82.78
2018-04-08T05:32:47.216Z,82.43
2018-04-08T05:35:15.605Z,82.02
2018-04-08T05:37:44.027Z,81.80
2018-04-08T05:40:12.418Z,81.66
2018-04-08T05:42:40.845Z,81.46
2018-04-08T05:45:13.925Z,81.21
2018-04-08T05:47:42.106Z,81.08
2018-04-08T05:50:12.984Z,80.79
2018-04-08T05:52:41.163Z,80.74
2018-04-08T05:55:12.481Z,80.67
2018-04-08T05:57:40.793Z,80.45
2018-04-08T06:00:13.264Z,79.89
2018-04-08T06:02:41.673Z,79.50
2018-04-08T06:05:12.716Z,78.83
2018-04-08T06:07:41.134Z,78.45
2018-04-08T06:10:09.952Z,77.59
2018-04-08T06:12:38.522Z,77.27
2018-04-08T06:15:10.014Z,76.73
2018-04-08T06:17:38.285Z,76.09
2018-04-08T06:22:40.174Z,75.44
2018-04-08T06:25:08.918Z,75.04
2018-04-08T06:27:37.094Z,74.37
2018-04-08T06:30:05.505Z,74.36
2018-04-08T06:32:34.711Z,73.60
2018-04-08T06:35:02.890Z,72.90
2018-04-08T06:37:31.095Z,72.51
2018-04-08T06:39:59.268Z,72.55
2018-04-08T06:42:27.463Z,72.25
2018-04-08T06:44:55.632Z,72.10
2018-04-08T06:47:23.775Z,71.85
2018-04-08T06:49:51.938Z,70.65
2018-04-08T06:52:20.455Z,69.88
2018-04-08T06:54:48.854Z,69.54
2018-04-08T06:57:17.240Z,69.26
2018-04-08T06:59:45.975Z,69.20
2018-04-08T07:02:14.420Z,68.51
2018-04-08T07:04:42.671Z,67.68
2018-04-08T07:07:11.078Z,66.88
2018-04-08T07:09:39.255Z,66.16
2018-04-08T07:12:07.426Z,66.42
2018-04-08T07:14:35.708Z,66.08
2018-04-08T07:17:05.490Z,65.90
2018-04-08T07:19:35.472Z,65.53
2018-04-08T07:22:03.958Z,65.45
2018-04-08T07:24:32.140Z,65.23
2018-04-08T07:27:00.583Z,65.04
2018-04-08T07:29:28.742Z,64.80
2018-04-08T07:31:56.717Z,64.66
2018-04-08T07:34:25.157Z,64.33
2018-04-08T07:36:53.575Z,63.42
2018-04-08T07:39:21.981Z,64.17
2018-04-08T07:41:50.367Z,64.42
2018-04-08T07:44:18.868Z,63.88
2018-04-08T07:46:47.286Z,63.51
2018-04-08T07:49:15.635Z,63.10
2018-04-08T07:51:45.298Z,63.00
2018-04-08T07:54:14.368Z,62.79
2018-04-08T07:56:42.763Z,62.64
2018-04-08T07:59:11.969Z,62.96
2018-04-08T08:01:40.554Z,62.47
2018-04-08T08:04:08.954Z,62.55
2018-04-08T08:06:37.376Z,61.74
2018-04-08T08:09:06.123Z,61.64
2018-04-08T08:11:34.513Z,62.17
2018-04-08T08:14:02.934Z,62.46
2018-04-08T08:16:31.090Z,61.42
2018-04-08T08:18:59.469Z,61.12
2018-04-08T08:21:27.632Z,60.72
2018-04-08T08:23:57.037Z,59.93
2018-04-08T08:26:25.237Z,57.77
2018-04-08T08:28:53.610Z,58.87
2018-04-08T08:31:21.768Z,56.73
2018-04-08T08:33:50.155Z,56.42
2018-04-08T08:36:18.572Z,56.44
2018-04-08T08:38:46.949Z,54.97
2018-04-08T08:41:15.346Z,55.53
2018-04-08T08:43:44.593Z,54.34
2018-04-08T08:46:13.123Z,54.13
2018-04-08T08:48:41.534Z,54.61
2018-04-08T08:51:09.916Z,55.34
2018-04-08T08:53:38.763Z,52.96
2018-04-08T08:56:07.131Z,54.09
2018-04-08T08:58:35.511Z,54.49
2018-04-08T09:01:03.938Z,54.70
2018-04-08T09:03:32.351Z,55.17
2018-04-08T09:06:00.749Z,54.67
2018-04-08T09:08:28.912Z,54.31
2018-04-08T09:10:57.301Z,54.66
2018-04-08T09:13:25.706Z,54.79
2018-04-08T09:15:53.852Z,54.36
2018-04-08T09:18:22.012Z,53.59
2018-04-08T09:20:55.873Z,54.77
2018-04-08T09:23:36.795Z,54.66
2018-04-08T09:26:05.756Z,54.48
2018-04-08T09:28:34.167Z,54.57
2018-04-08T09:31:02.546Z,54.65
2018-04-08T09:33:30.699Z,53.14
2018-04-08T09:35:59.078Z,52.59
2018-04-08T09:38:27.478Z,51.96
2018-04-08T09:40:55.844Z,51.65
2018-04-08T09:43:24.230Z,50.62
2018-04-08T09:45:52.634Z,50.77
2018-04-08T09:48:21.014Z,49.87
2018-04-08T09:50:49.438Z,47.84
2018-04-08T09:53:17.842Z,48.73
2018-04-08T09:55:45.995Z,47.84
2018-04-08T09:58:24.058Z,44.92
2018-04-08T10:03:54.451Z,43.33
2018-04-08T10:06:23.668Z,43.18
2018-04-08T10:08:52.065Z,42.19
2018-04-08T10:11:20.553Z,40.94
2018-04-08T10:13:48.921Z,41.02
2018-04-08T10:16:17.147Z,40.06
2018-04-08T10:18:45.308Z,38.55
2018-04-08T10:21:13.481Z,38.29
2018-04-08T10:23:41.653Z,37.82
2018-04-08T10:26:09.722Z,37.37
2018-04-08T10:28:38.092Z,35.70
2018-04-08T10:31:06.487Z,35.66
2018-04-08T10:33:34.882Z,33.63
2018-04-08T10:36:03.283Z,32.63
2018-04-08T10:38:31.658Z,32.82
2018-04-08T10:41:00.072Z,32.67
2018-04-08T10:43:28.484Z,34.32
2018-04-08T10:45:56.861Z,33.96
2018-04-08T10:48:25.308Z,32.38
2018-04-08T10:50:53.459Z,33.18
2018-04-08T10:53:21.862Z,34.08
2018-04-08T10:55:50.283Z,33.20
2018-04-08T10:58:18.689Z,34.77
2018-04-08T11:00:47.073Z,34.34
2018-04-08T11:03:15.514Z,33.44
2018-04-08T11:05:43.930Z,34.06
2018-04-08T11:08:12.336Z,34.23
2018-04-08T11:10:40.763Z,34.25
2018-04-08T11:13:09.468Z,34.93
2018-04-08T11:15:37.867Z,34.73
2018-04-08T11:18:06.261Z,34.70
2018-04-08T11:20:34.663Z,35.30
2018-04-08T11:23:03.065Z,34.16
2018-04-08T11:25:31.217Z,33.27
2018-04-08T11:27:59.611Z,33.78
2018-04-08T11:30:27.989Z,33.22
2018-04-08T11:32:56.393Z,33.24
2018-04-08T11:35:24.810Z,34.12
2018-04-08T11:37:53.211Z,33.35
2018-04-08T11:40:21.598Z,33.75
2018-04-08T11:42:50.039Z,32.83
2018-04-08T11:45:18.211Z,33.99
2018-04-08T11:47:46.605Z,33.61
2018-04-08T11:50:14.763Z,33.61
2018-04-08T11:52:43.169Z,32.41
2018-04-08T11:55:14.754Z,34.65
2018-04-08T11:57:43.158Z,34.00
2018-04-08T12:00:11.379Z,32.10
2018-04-08T12:02:39.571Z,31.47
2018-04-08T12:05:09.849Z,31.94
2018-04-08T12:07:38.014Z,31.48
2018-04-08T12:10:06.232Z,30.93
2018-04-08T12:12:34.618Z,30.85
2018-04-08T12:15:03.029Z,29.86
2018-04-08T12:17:31.598Z,30.70
2018-04-08T12:20:00.020Z,31.16
2018-04-08T12:22:28.177Z,31.33
2018-04-08T12:24:56.320Z,30.99
2018-04-08T12:27:24.479Z,30.93
2018-04-08T12:29:52.634Z,30.43
2018-04-08T12:32:20.821Z,31.43
2018-04-08T12:34:49.083Z,31.22
2018-04-08T12:37:17.480Z,31.60
2018-04-08T12:39:45.863Z,31.06
2018-04-08T12:42:14.236Z,30.20
2018-04-08T12:44:42.645Z,30.29
2018-04-08T12:47:11.051Z,30.46
2018-04-08T12:49:39.242Z,30.73
2018-04-08T12:52:07.663Z,31.03
2018-04-08T12:54:35.979Z,31.09
2018-04-08T12:57:04.193Z,31.61
2018-04-08T12:59:32.598Z,31.87
2018-04-08T13:02:00.982Z,32.66
2018-04-08T13:04:29.158Z,31.31
2018-04-08T13:06:57.357Z,31.21
2018-04-08T13:09:25.752Z,30.98
2018-04-08T13:11:53.909Z,30.57
2018-04-08T13:14:22.236Z,30.03
2018-04-08T13:16:50.278Z,30.06
2018-04-08T13:19:18.456Z,29.83
2018-04-08T13:21:46.620Z,29.14
2018-04-08T13:24:14.999Z,29.10
2018-04-08T13:26:43.378Z,29.50
2018-04-08T13:29:11.835Z,29.97
2018-04-08T13:31:40.439Z,29.67
2018-04-08T13:34:08.845Z,29.81
2018-04-08T13:36:37.224Z,29.17
2018-04-08T13:39:05.452Z,29.11
2018-04-08T13:41:33.855Z,29.39
2018-04-08T13:44:02.241Z,29.32
2018-04-08T13:46:30.653Z,29.37
2018-04-08T13:48:59.023Z,29.12
2018-04-08T13:51:27.495Z,29.78
2018-04-08T13:53:55.882Z,29.93
2018-04-08T13:56:24.250Z,30.01
2018-04-08T13:58:52.692Z,30.52
2018-04-08T14:01:22.628Z,31.30
2018-04-08T14:03:51.026Z,31.38
2018-04-08T14:06:19.192Z,31.42
2018-04-08T14:08:47.387Z,31.73
2018-04-08T14:11:15.759Z,31.90
2018-04-08T14:13:44.137Z,32.20
2018-04-08T14:16:12.527Z,31.95
2018-04-08T14:18:40.916Z,31.92
2018-04-08T14:21:09.292Z,33.12
2018-04-08T14:23:37.680Z,33.13
2018-04-08T14:26:06.091Z,32.39
2018-04-08T14:28:34.464Z,32.31
2018-04-08T14:31:02.839Z,32.45
2018-04-08T14:33:31.007Z,32.56
2018-04-08T14:35:59.159Z,33.02
2018-04-08T14:38:27.296Z,32.37
2018-04-08T14:40:55.714Z,32.89
2018-04-08T14:43:24.265Z,33.00
2018-04-08T14:45:52.432Z,33.36
2018-04-08T14:48:20.616Z,33.24
2018-04-08T14:50:48.787Z,33.24
2018-04-08T14:53:16.949Z,33.43
2018-04-08T14:55:45.346Z,33.33
2018-04-08T14:58:13.519Z,33.35
2018-04-08T15:00:41.873Z,33.72
2018-04-08T15:03:10.334Z,33.25
2018-04-08T15:05:38.502Z,33.18
2018-04-08T15:08:07.185Z,32.72
2018-04-08T15:10:35.606Z,32.73
2018-04-08T15:13:03.907Z,33.00
2018-04-08T15:15:32.135Z,32.98
2018-04-08T15:18:00.459Z,32.76
2018-04-08T15:20:28.833Z,32.74
2018-04-08T15:22:57.004Z,32.85
2018-04-08T15:25:25.434Z,32.63
2018-04-08T15:27:53.844Z,33.03
2018-04-08T15:30:22.247Z,33.17
2018-04-08T15:32:50.394Z,33.38
2018-04-08T15:35:18.871Z,33.33
2018-04-08T15:37:47.537Z,33.44
2018-04-08T15:40:15.964Z,33.53
2018-04-08T15:42:44.187Z,33.59
2018-04-08T15:45:12.569Z,33.81
2018-04-08T15:47:42.536Z,34.21
2018-04-08T15:50:13.898Z,34.02
2018-04-08T15:52:42.282Z,34.22
2018-04-08T15:55:16.651Z,34.17
2018-04-08T15:57:45.042Z,34.33
2018-04-08T16:00:17.708Z,34.38
2018-04-08T16:02:46.161Z,34.35
2018-04-08T16:05:14.469Z,34.68
2018-04-08T16:07:42.607Z,34.95
2018-04-08T16:10:10.991Z,35.05
2018-04-08T16:12:39.134Z,35.26
2018-04-08T16:15:12.438Z,35.35
2018-04-08T16:17:40.841Z,35.22
2018-04-08T16:20:09.013Z,35.56
2018-04-08T16:22:37.554Z,35.55
2018-04-08T16:25:06.031Z,35.27
2018-04-08T16:27:34.448Z,35.20
2018-04-08T16:30:02.601Z,35.12
2018-04-08T16:32:30.997Z,35.33
2018-04-08T16:34:59.163Z,34.92
2018-04-08T16:37:27.530Z,35.11
2018-04-08T16:39:55.910Z,35.01
2018-04-08T16:42:24.287Z,35.09
2018-04-08T16:44:52.669Z,35.03
2018-04-08T16:47:21.041Z,34.93
2018-04-08T16:49:49.194Z,34.78
2018-04-08T16:52:17.573Z,34.50
2018-04-08T16:54:45.951Z,34.66
2018-04-08T16:57:14.372Z,34.87
2018-04-08T16:59:42.753Z,34.77
2018-04-08T17:02:10.899Z,34.58
2018-04-08T17:04:39.286Z,34.42
2018-04-08T17:07:07.701Z,34.36
2018-04-08T17:09:35.856Z,34.57
2018-04-08T17:12:04.405Z,34.61
2018-04-08T17:14:32.790Z,35.03
2018-04-08T17:17:01.230Z,35.00
2018-04-08T17:19:29.380Z,35.03
2018-04-08T17:21:57.538Z,35.05
2018-04-08T17:24:25.707Z,35.04
2018-04-08T17:26:54.015Z,35.07
2018-04-08T17:29:22.165Z,35.18
2018-04-08T17:31:50.546Z,35.17
2018-04-08T17:34:18.706Z,35.18
2018-04-08T17:36:47.099Z,35.33
2018-04-08T17:39:15.550Z,35.47
2018-04-08T17:41:43.702Z,35.62
2018-04-08T17:44:12.062Z,35.62
2018-04-08T17:46:40.199Z,35.67
2018-04-08T17:49:08.610Z,35.81
2018-04-08T17:51:36.984Z,35.91
2018-04-08T17:54:05.594Z,36.10
2018-04-08T17:56:33.975Z,36.18
2018-04-08T17:59:02.359Z,36.32
2018-04-08T18:01:30.773Z,36.50
2018-04-08T18:03:59.148Z,36.77
2018-04-08T18:06:27.525Z,37.31
2018-04-08T18:08:56.302Z,37.75
2018-04-08T18:11:24.670Z,38.30
2018-04-08T18:13:53.091Z,38.73
2018-04-08T18:16:21.474Z,39.27
2018-04-08T18:18:49.848Z,39.75
2018-04-08T18:21:18.238Z,40.33
2018-04-08T18:23:46.634Z,40.67
2018-04-08T18:26:15.071Z,40.94
2018-04-08T18:28:43.468Z,41.13
2018-04-08T18:31:11.892Z,41.30
2018-04-08T18:33:40.336Z,41.28
2018-04-08T18:36:08.759Z,41.35
2018-04-08T18:38:37.196Z,41.46
2018-04-08T18:41:05.575Z,41.61
2018-04-08T18:43:33.971Z,41.69
2018-04-08T18:46:02.367Z,41.87
2018-04-08T18:48:30.780Z,42.00
2018-04-08T18:50:59.148Z,42.32
2018-04-08T18:53:27.554Z,42.45
2018-04-08T18:55:55.972Z,42.58
2018-04-08T18:58:24.339Z,42.62
2018-04-08T19:00:52.719Z,42.71
2018-04-08T19:03:21.091Z,42.76
2018-04-08T19:05:49.489Z,42.77
2018-04-08T19:08:17.861Z,42.85
2018-04-08T19:10:46.252Z,42.78
2018-04-08T19:13:14.414Z,42.78
2018-04-08T19:15:42.792Z,42.78
2018-04-08T19:18:11.272Z,42.74
2018-04-08T19:20:45.491Z,42.74
2018-04-08T19:23:13.884Z,42.74
2018-04-08T19:25:42.327Z,42.58
2018-04-08T19:28:10.738Z,42.48
2018-04-08T19:30:39.192Z,42.41
2018-04-08T19:33:07.695Z,42.41
2018-04-08T19:35:36.064Z,42.34
2018-04-08T19:38:04.447Z,42.26
2018-04-08T19:40:34.005Z,42.16
2018-04-08T19:43:02.394Z,42.27
2018-04-08T19:45:30.783Z,42.20
2018-04-08T19:47:59.149Z,42.15
2018-04-08T19:50:28.141Z,42.29
2018-04-08T19:52:56.523Z,42.37
2018-04-08T19:55:24.920Z,42.52
2018-04-08T19:57:53.312Z,42.80
2018-04-08T20:00:21.692Z,42.87
2018-04-08T20:02:50.666Z,43.08
2018-04-08T20:05:19.091Z,43.22
2018-04-08T20:07:47.473Z,43.27
2018-04-08T20:10:15.842Z,43.32
2018-04-08T20:12:44.226Z,43.60
2018-04-08T20:15:13.118Z,43.54
2018-04-08T20:17:41.503Z,43.49
2018-04-08T20:20:14.923Z,43.64
2018-04-08T20:22:43.307Z,43.93
2018-04-08T20:25:11.689Z,44.07
2018-04-08T20:27:40.806Z,44.22
2018-04-08T20:30:11.243Z,44.41
2018-04-08T20:32:40.655Z,44.30
2018-04-08T20:35:09.047Z,44.23
2018-04-08T20:37:37.423Z,44.41
2018-04-08T20:40:06.130Z,44.45
2018-04-08T20:42:34.527Z,44.76
2018-04-08T20:45:02.910Z,44.76
2018-04-08T20:47:31.418Z,44.91
2018-04-08T20:49:59.570Z,45.18
2018-04-08T20:52:27.944Z,45.30
2018-04-08T20:54:56.326Z,45.38
2018-04-08T20:57:24.699Z,45.42
2018-04-08T20:59:53.077Z,45.42
2018-04-08T21:02:21.464Z,45.28
2018-04-08T21:04:50.038Z,45.09
2018-04-08T21:07:20.454Z,45.25
2018-04-08T21:09:52.255Z,45.27
2018-04-08T21:12:20.662Z,45.40
2018-04-08T21:14:53.449Z,45.30
2018-04-08T21:17:24.753Z,45.40
2018-04-08T21:19:53.128Z,45.20
2018-04-08T21:22:22.071Z,45.22
2018-04-08T21:24:50.223Z,45.17
2018-04-08T21:27:18.631Z,45.24
2018-04-08T21:29:47.208Z,45.32
2018-04-08T21:32:15.608Z,45.51
2018-04-08T21:34:43.747Z,45.43
2018-04-08T21:37:12.135Z,45.37
2018-04-08T21:39:40.280Z,45.27
2018-04-08T21:42:08.442Z,45.25
2018-04-08T21:44:36.874Z,45.05
2018-04-08T21:47:05.287Z,45.09
2018-04-08T21:49:33.442Z,44.96
2018-04-08T21:52:01.682Z,44.92
2018-04-08T21:54:29.846Z,44.80
2018-04-08T21:56:58.247Z,44.69
2018-04-08T21:59:26.693Z,44.64
2018-04-08T22:01:55.538Z,44.65
2018-04-08T22:04:23.968Z,44.21
2018-04-08T22:06:52.371Z,43.87
2018-04-08T22:09:20.735Z,43.77
2018-04-08T22:11:49.134Z,43.84
2018-04-08T22:14:17.534Z,43.85
2018-04-08T22:16:45.910Z,43.89
2018-04-08T22:19:14.525Z,43.63
2018-04-08T22:21:42.879Z,43.37
2018-04-08T22:24:10.921Z,43.10
2018-04-08T22:26:39.538Z,42.90
2018-04-08T22:29:07.916Z,42.54
2018-04-08T22:31:36.318Z,42.27
2018-04-08T22:34:04.770Z,42.16
2018-04-08T22:36:33.152Z,42.15
2018-04-08T22:39:01.534Z,42.11
2018-04-08T22:41:29.936Z,42.20
2018-04-08T22:43:58.511Z,42.03
2018-04-08T22:46:26.718Z,41.88
2018-04-08T22:48:55.131Z,41.92
2018-04-08T22:51:23.532Z,42.14
2018-04-08T22:53:51.903Z,42.08
2018-04-08T22:56:20.296Z,41.95
2018-04-08T22:58:48.675Z,42.22
2018-04-08T23:01:17.081Z,42.19
2018-04-08T23:03:45.450Z,42.13
2018-04-08T23:06:13.881Z,42.03
2018-04-08T23:08:42.293Z,42.00
2018-04-08T23:11:10.431Z,41.90
2018-04-08T23:13:38.820Z,41.73
2018-04-08T23:16:06.885Z,41.37
2018-04-08T23:18:34.718Z,41.01
2018-04-08T23:21:03.656Z,41.16
2018-04-08T23:23:32.113Z,41.24
2018-04-08T23:26:00.515Z,41.44
2018-04-08T23:28:28.910Z,41.45
2018-04-08T23:30:57.287Z,41.36
2018-04-08T23:33:25.663Z,41.16
2018-04-08T23:35:54.048Z,41.00
2018-04-08T23:38:22.484Z,41.03
2018-04-08T23:40:50.858Z,41.28
2018-04-08T23:43:19.256Z,41.07
2018-04-08T23:45:47.645Z,40.94
2018-04-08T23:48:16.126Z,40.55
2018-04-08T23:50:44.496Z,40.21
2018-04-08T23:53:13.602Z,40.11
2018-04-08T23:55:41.994Z,39.87
2018-04-08T23:58:10.395Z,39.72
